createdAt,value
2023-07-29T00:02:06.115Z,99465.94
2023-07-29T00:04:33.436Z,99478.44
2023-07-29T00:07:01.087Z,99482.03
2023-07-29T00:09:28.327Z,99478.81
2023-07-29T00:11:55.932Z,99477.00
2023-07-29T00:14:23.177Z,99477.84
2023-07-29T00:16:50.894Z,99483.09
2023-07-29T00:19:18.212Z,99482.19
2023-07-29T00:21:45.756Z,99481.91
2023-07-29T00:24:13.098Z,99474.72
2023-07-29T00:26:40.696Z,99471.41
2023-07-29T00:29:08.149Z,99482.94
2023-07-29T00:31:35.781Z,99477.91
2023-07-29T00:34:03.075Z,99484.03
2023-07-29T00:36:30.710Z,99481.91
2023-07-29T00:38:58.592Z,99482.19
2023-07-29T00:41:27.010Z,99474.19
2023-07-29T00:43:54.483Z,99474.97
2023-07-29T00:46:23.313Z,99483.38
2023-07-29T00:48:50.822Z,99472.38
2023-07-29T00:51:18.542Z,99477.25
2023-07-29T00:53:45.811Z,99476.25
2023-07-29T00:56:14.295Z,99480.13
2023-07-29T00:58:41.755Z,99477.16
2023-07-29T01:01:09.690Z,99479.03
2023-07-29T01:03:37.283Z,99479.84
2023-07-29T01:06:29.359Z,99480.88
2023-07-29T01:09:13.241Z,99478.13
2023-07-29T01:12:15.836Z,99482.19
2023-07-29T01:15:08.045Z,99481.69
2023-07-29T01:17:44.713Z,99475.97
2023-07-29T01:20:21.525Z,99477.91
2023-07-29T01:22:49.688Z,99485.72
2023-07-29T01:25:17.508Z,99480.88
2023-07-29T01:27:47.392Z,99486.09
2023-07-29T01:30:17.951Z,99484.94
2023-07-29T01:33:03.304Z,99493.13
2023-07-29T01:35:53.297Z,99494.41
2023-07-29T01:38:35.762Z,99481.59
2023-07-29T01:41:04.164Z,99475.09
2023-07-29T01:43:34.418Z,99489.84
2023-07-29T01:46:02.370Z,99482.56
2023-07-29T01:48:31.701Z,99490.16
2023-07-29T01:50:59.248Z,99475.06
2023-07-29T01:53:26.926Z,99474.44
2023-07-29T01:55:54.296Z,99486.72
2023-07-29T01:58:22.382Z,99485.72
2023-07-29T02:00:49.782Z,99474.81
2023-07-29T02:03:17.768Z,99486.91
2023-07-29T02:05:45.185Z,99493.00
2023-07-29T02:08:13.164Z,99488.16
2023-07-29T02:10:40.592Z,99489.28
2023-07-29T02:13:08.292Z,99485.97
2023-07-29T02:15:35.598Z,99477.19
2023-07-29T02:18:04.688Z,99485.22
2023-07-29T02:20:32.082Z,99490.25
2023-07-29T02:22:59.709Z,99499.19
2023-07-29T02:25:27.175Z,99489.81
2023-07-29T02:27:55.242Z,99492.63
2023-07-29T02:30:22.814Z,99494.81
2023-07-29T02:32:50.729Z,99502.06
2023-07-29T02:35:18.605Z,99494.81
2023-07-29T02:37:46.589Z,99504.06
2023-07-29T02:40:14.382Z,99504.34
2023-07-29T02:42:42.130Z,99501.09
2023-07-29T02:45:11.457Z,99500.31
2023-07-29T02:47:39.459Z,99503.84
2023-07-29T02:50:07.473Z,99509.59
2023-07-29T02:52:35.126Z,99506.63
2023-07-29T02:55:02.367Z,99502.63
2023-07-29T02:57:29.938Z,99498.56
2023-07-29T02:59:57.210Z,99500.06
2023-07-29T03:02:24.882Z,99511.59
2023-07-29T03:04:52.213Z,99507.56
2023-07-29T03:07:20.593Z,99506.44
2023-07-29T03:09:47.859Z,99514.66
2023-07-29T03:12:15.450Z,99519.19
2023-07-29T03:14:42.983Z,99521.34
2023-07-29T03:17:10.695Z,99520.66
2023-07-29T03:19:38.027Z,99508.91
2023-07-29T03:22:05.717Z,99525.06
2023-07-29T03:24:33.844Z,99532.66
2023-07-29T03:27:01.816Z,99523.38
2023-07-29T03:29:29.162Z,99520.13
2023-07-29T03:31:56.895Z,99530.72
2023-07-29T03:34:24.473Z,99521.53
2023-07-29T03:36:52.929Z,99530.81
2023-07-29T03:39:20.212Z,99538.16
2023-07-29T03:41:47.906Z,99525.84
2023-07-29T03:44:15.221Z,99540.03
2023-07-29T03:46:42.889Z,99534.28
2023-07-29T03:49:11.725Z,99538.78
2023-07-29T03:51:39.372Z,99550.72
2023-07-29T03:54:06.690Z,99552.09
2023-07-29T03:56:36.718Z,99557.19
2023-07-29T03:59:06.568Z,99554.28
2023-07-29T04:01:34.784Z,99546.75
2023-07-29T04:04:02.301Z,99556.78
2023-07-29T04:06:30.258Z,99561.41
2023-07-29T04:08:57.958Z,99566.09
2023-07-29T04:11:25.603Z,99559.25
2023-07-29T04:13:52.932Z,99568.91
2023-07-29T04:16:21.012Z,99572.88
2023-07-29T04:18:48.428Z,99578.09
2023-07-29T04:21:16.033Z,99579.41
2023-07-29T04:23:43.378Z,99584.97
2023-07-29T04:26:10.978Z,99580.91
2023-07-29T04:28:38.406Z,99581.59
2023-07-29T04:31:06.045Z,99575.13
2023-07-29T04:33:36.934Z,99579.91
2023-07-29T04:36:05.542Z,99587.44
2023-07-29T04:38:34.712Z,99572.31
2023-07-29T04:41:03.436Z,99579.53
2023-07-29T04:43:34.265Z,99575.75
2023-07-29T04:46:02.015Z,99577.28
2023-07-29T04:48:29.389Z,99578.00
2023-07-29T04:50:57.051Z,99583.47
2023-07-29T04:53:24.335Z,99574.66
2023-07-29T04:55:52.054Z,99570.50
2023-07-29T04:58:19.450Z,99565.50
2023-07-29T05:00:50.040Z,99568.16
2023-07-29T05:03:17.512Z,99573.28
2023-07-29T05:05:45.117Z,99578.03
2023-07-29T05:08:13.006Z,99586.28
2023-07-29T05:10:40.728Z,99577.88
2023-07-29T05:13:08.465Z,99588.50
2023-07-29T05:15:36.056Z,99583.31
2023-07-29T05:18:03.473Z,99582.72
2023-07-29T05:20:31.058Z,99591.84
2023-07-29T05:22:58.264Z,99580.31
2023-07-29T05:25:25.875Z,99587.59
2023-07-29T05:27:53.261Z,99587.06
2023-07-29T05:30:20.881Z,99597.00
2023-07-29T05:32:48.287Z,99603.47
2023-07-29T05:35:16.005Z,99598.75
2023-07-29T05:37:43.248Z,99598.75
2023-07-29T05:40:11.103Z,99595.41
2023-07-29T05:42:40.069Z,99590.16
2023-07-29T05:45:09.027Z,99595.59
2023-07-29T05:47:36.549Z,99605.63
2023-07-29T05:50:05.817Z,99603.53
2023-07-29T05:52:33.468Z,99615.75
2023-07-29T05:55:01.509Z,99619.00
2023-07-29T05:57:29.279Z,99621.03
2023-07-29T05:59:56.823Z,99627.75
2023-07-29T06:02:24.232Z,99630.75
2023-07-29T06:04:53.479Z,99635.81
2023-07-29T06:07:20.771Z,99639.78
2023-07-29T06:09:48.486Z,99636.03
2023-07-29T06:12:15.887Z,99636.53
2023-07-29T06:14:43.395Z,99638.41
2023-07-29T06:17:12.792Z,99643.94
2023-07-29T06:19:40.659Z,99631.94
2023-07-29T06:22:08.050Z,99647.09
2023-07-29T06:24:35.651Z,99640.16
2023-07-29T06:27:03.136Z,99631.31
2023-07-29T06:29:30.679Z,99643.84
2023-07-29T06:31:59.625Z,99643.09
2023-07-29T06:34:27.239Z,99645.31
2023-07-29T06:36:54.528Z,99644.16
2023-07-29T06:39:22.088Z,99631.31
2023-07-29T06:41:49.410Z,99630.00
2023-07-29T06:44:19.398Z,99635.50
2023-07-29T06:46:47.284Z,99641.16
2023-07-29T06:49:14.843Z,99624.34
2023-07-29T06:51:42.140Z,99644.78
2023-07-29T06:54:09.724Z,99625.75
2023-07-29T06:56:37.400Z,99630.44
2023-07-29T06:59:05.178Z,99629.50
2023-07-29T07:01:32.535Z,99629.50
2023-07-29T07:04:00.267Z,99633.78
2023-07-29T07:06:27.741Z,99624.66
2023-07-29T07:08:55.244Z,99630.09
2023-07-29T07:11:22.680Z,99619.50
2023-07-29T07:13:50.262Z,99630.25
2023-07-29T07:16:17.622Z,99614.59
2023-07-29T07:18:45.385Z,99634.53
2023-07-29T07:21:12.831Z,99628.41
2023-07-29T07:23:40.947Z,99620.22
2023-07-29T07:26:08.325Z,99624.22
2023-07-29T07:28:35.885Z,99632.84
2023-07-29T07:31:03.187Z,99627.63
2023-07-29T07:33:30.834Z,99624.78
2023-07-29T07:35:58.094Z,99615.25
2023-07-29T07:38:25.770Z,99605.34
2023-07-29T07:40:57.235Z,99611.41
2023-07-29T07:43:25.563Z,99607.41
2023-07-29T07:45:58.806Z,99613.72
2023-07-29T07:48:27.064Z,99606.25
2023-07-29T07:50:54.477Z,99605.75
2023-07-29T07:53:22.135Z,99600.88
2023-07-29T07:55:49.430Z,99603.34
2023-07-29T07:58:17.299Z,99599.47
2023-07-29T08:00:44.522Z,99599.25
2023-07-29T08:03:12.231Z,99595.97
2023-07-29T08:05:39.716Z,99594.38
2023-07-29T08:08:07.370Z,99589.19
2023-07-29T08:10:35.003Z,99606.66
2023-07-29T08:13:02.767Z,99600.97
2023-07-29T08:15:30.210Z,99595.28
2023-07-29T08:17:57.910Z,99581.09
2023-07-29T08:20:25.244Z,99593.41
2023-07-29T08:22:52.829Z,99580.38
2023-07-29T08:25:20.364Z,99582.28
2023-07-29T08:27:48.056Z,99574.03
2023-07-29T08:30:17.098Z,99581.56
2023-07-29T08:32:46.015Z,99577.63
2023-07-29T08:35:13.457Z,99577.56
2023-07-29T08:37:41.141Z,99569.75
2023-07-29T08:40:09.044Z,99575.47
2023-07-29T08:42:40.101Z,99574.63
2023-07-29T08:45:12.534Z,99561.81
2023-07-29T08:47:40.254Z,99551.75
2023-07-29T08:50:08.766Z,99550.72
2023-07-29T08:52:37.614Z,99564.19
2023-07-29T08:55:05.790Z,99568.72
2023-07-29T08:57:33.734Z,99568.06
2023-07-29T09:00:02.756Z,99567.13
2023-07-29T09:02:30.814Z,99570.03
2023-07-29T09:04:58.166Z,99574.56
2023-07-29T09:07:26.868Z,99573.81
2023-07-29T09:09:54.087Z,99566.84
2023-07-29T09:12:22.239Z,99566.94
2023-07-29T09:14:53.923Z,99570.50
2023-07-29T09:17:23.258Z,99551.75
2023-07-29T09:19:51.683Z,99549.88
2023-07-29T09:22:21.118Z,99550.53
2023-07-29T09:24:49.128Z,99551.78
2023-07-29T09:27:27.917Z,99545.72
2023-07-29T09:29:56.996Z,99550.66
2023-07-29T09:32:26.491Z,99549.19
2023-07-29T09:34:54.052Z,99550.31
2023-07-29T09:37:25.361Z,99556.53
2023-07-29T09:39:53.036Z,99560.97
2023-07-29T09:42:22.120Z,99558.59
2023-07-29T09:44:52.634Z,99547.53
2023-07-29T09:47:21.560Z,99554.22
2023-07-29T09:49:49.123Z,99542.28
2023-07-29T09:52:21.218Z,99551.41
2023-07-29T09:54:48.841Z,99548.00
2023-07-29T09:57:19.668Z,99546.16
2023-07-29T09:59:57.129Z,99552.13
2023-07-29T10:02:26.768Z,99544.84
2023-07-29T10:04:54.277Z,99541.38
2023-07-29T10:07:22.330Z,99530.81
2023-07-29T10:09:53.120Z,99533.19
2023-07-29T10:12:21.557Z,99538.34
2023-07-29T10:14:49.433Z,99536.53
2023-07-29T10:17:17.644Z,99521.88
2023-07-29T10:19:46.236Z,99515.97
2023-07-29T10:22:18.687Z,99524.97
2023-07-29T10:24:48.052Z,99514.50
2023-07-29T10:27:19.228Z,99503.69
2023-07-29T10:29:46.584Z,99510.44
2023-07-29T10:32:14.587Z,99520.59
2023-07-29T10:34:42.119Z,99513.56
2023-07-29T10:37:10.702Z,99510.88
2023-07-29T10:39:42.402Z,99517.00
2023-07-29T10:42:09.965Z,99516.22
2023-07-29T10:44:43.390Z,99519.63
2023-07-29T10:47:14.430Z,99507.19
2023-07-29T10:49:42.498Z,99491.72
2023-07-29T10:52:13.812Z,99510.53
2023-07-29T10:54:44.533Z,99503.03
2023-07-29T10:57:16.778Z,99498.22
2023-07-29T11:00:06.112Z,99498.31
2023-07-29T11:02:37.003Z,99503.75
2023-07-29T11:05:09.075Z,99485.91
2023-07-29T11:07:56.975Z,99487.28
2023-07-29T11:10:24.309Z,99497.44
2023-07-29T11:12:55.321Z,99489.22
2023-07-29T11:15:27.841Z,99489.69
2023-07-29T11:18:00.917Z,99482.75
2023-07-29T11:20:30.824Z,99476.19
2023-07-29T11:23:00.654Z,99480.28
2023-07-29T11:25:30.138Z,99476.31
2023-07-29T11:28:01.554Z,99482.72
2023-07-29T11:30:32.082Z,99480.59
2023-07-29T11:33:00.221Z,99476.28
2023-07-29T11:35:27.651Z,99469.41
2023-07-29T11:37:58.166Z,99464.75
2023-07-29T11:40:26.201Z,99466.97
2023-07-29T11:42:56.042Z,99467.47
2023-07-29T11:45:32.437Z,99459.47
2023-07-29T11:48:03.782Z,99462.53
2023-07-29T11:50:31.321Z,99470.28
2023-07-29T11:52:59.185Z,99464.94
2023-07-29T11:55:26.509Z,99471.50
2023-07-29T11:57:54.344Z,99460.09
2023-07-29T12:00:22.610Z,99461.13
2023-07-29T12:02:51.182Z,99450.78
2023-07-29T12:05:19.902Z,99444.31
2023-07-29T12:07:47.786Z,99444.81
2023-07-29T12:10:15.622Z,99453.44
2023-07-29T12:12:47.559Z,99439.38
2023-07-29T12:15:15.080Z,99425.25
2023-07-29T12:17:43.151Z,99436.88
2023-07-29T12:20:12.073Z,99418.91
2023-07-29T12:22:40.224Z,99423.34
2023-07-29T12:25:08.238Z,99425.53
2023-07-29T12:27:35.848Z,99420.84
2023-07-29T12:30:06.293Z,99411.00
2023-07-29T12:32:33.988Z,99401.66
2023-07-29T12:35:01.381Z,99416.56
2023-07-29T12:37:33.538Z,99407.50
2023-07-29T12:40:00.795Z,99402.75
2023-07-29T12:42:28.471Z,99400.06
2023-07-29T12:44:55.878Z,99402.13
2023-07-29T12:47:23.650Z,99408.31
2023-07-29T12:49:50.940Z,99419.16
2023-07-29T12:52:18.480Z,99410.66
2023-07-29T12:54:45.831Z,99412.78
2023-07-29T12:57:13.353Z,99413.09
2023-07-29T12:59:40.682Z,99405.13
2023-07-29T13:02:08.399Z,99399.88
2023-07-29T13:04:35.739Z,99399.88
2023-07-29T13:07:03.528Z,99411.75
2023-07-29T13:09:30.926Z,99413.34
2023-07-29T13:11:58.580Z,99396.28
2023-07-29T13:14:27.478Z,99406.78
2023-07-29T13:16:55.107Z,99390.81
2023-07-29T13:19:22.460Z,99384.72
2023-07-29T13:21:50.094Z,99408.44
2023-07-29T13:24:17.332Z,99396.84
2023-07-29T13:26:44.940Z,99394.13
2023-07-29T13:29:12.348Z,99394.06
2023-07-29T13:31:39.903Z,99398.81
2023-07-29T13:34:07.276Z,99399.91
2023-07-29T13:36:35.119Z,99402.94
2023-07-29T13:39:02.567Z,99389.41
2023-07-29T13:41:30.184Z,99396.28
2023-07-29T13:43:57.570Z,99391.31
2023-07-29T13:46:25.223Z,99384.16
2023-07-29T13:48:52.594Z,99378.66
2023-07-29T13:51:20.275Z,99381.97
2023-07-29T13:53:47.598Z,99384.72
2023-07-29T13:56:15.121Z,99364.53
2023-07-29T13:58:42.455Z,99368.13
2023-07-29T14:01:10.108Z,99360.38
2023-07-29T14:03:37.448Z,99371.75
2023-07-29T14:06:05.131Z,99367.31
2023-07-29T14:08:32.480Z,99364.13
2023-07-29T14:11:00.174Z,99351.06
2023-07-29T14:13:27.760Z,99351.06
2023-07-29T14:15:55.449Z,99350.25
2023-07-29T14:18:22.861Z,99351.22
2023-07-29T14:20:52.601Z,99358.78
2023-07-29T14:23:19.830Z,99357.69
2023-07-29T14:25:47.363Z,99339.44
2023-07-29T14:28:15.529Z,99351.59
2023-07-29T14:30:43.142Z,99343.31
2023-07-29T14:33:10.454Z,99339.22
2023-07-29T14:35:38.123Z,99328.34
2023-07-29T14:38:05.524Z,99322.31
2023-07-29T14:40:33.132Z,99321.53
2023-07-29T14:43:00.547Z,99314.88
2023-07-29T14:45:28.168Z,99318.44
2023-07-29T14:47:55.481Z,99319.31
2023-07-29T14:50:23.128Z,99322.09
2023-07-29T14:52:50.455Z,99309.06
2023-07-29T14:55:18.088Z,99310.22
2023-07-29T14:57:45.403Z,99312.13
2023-07-29T15:00:13.630Z,99299.66
2023-07-29T15:02:42.648Z,99299.75
2023-07-29T15:05:10.445Z,99295.56
2023-07-29T15:07:37.721Z,99288.16
2023-07-29T15:10:05.927Z,99303.06
2023-07-29T15:12:33.276Z,99287.88
2023-07-29T15:15:00.932Z,99278.06
2023-07-29T15:17:28.290Z,99285.53
2023-07-29T15:19:55.886Z,99286.47
2023-07-29T15:22:23.175Z,99271.09
2023-07-29T15:24:50.718Z,99258.41
2023-07-29T15:27:17.977Z,99267.47
2023-07-29T15:29:45.746Z,99269.78
2023-07-29T15:32:13.206Z,99260.84
2023-07-29T15:34:40.718Z,99258.41
2023-07-29T15:37:07.953Z,99254.41
2023-07-29T15:39:35.488Z,99257.50
2023-07-29T15:42:02.747Z,99260.03
2023-07-29T15:44:31.050Z,99252.63
2023-07-29T15:46:59.101Z,99263.88
2023-07-29T15:49:26.835Z,99251.44
2023-07-29T15:51:54.118Z,99247.34
2023-07-29T15:54:21.805Z,99251.91
2023-07-29T15:56:49.180Z,99251.91
2023-07-29T15:59:16.748Z,99235.09
2023-07-29T16:01:44.150Z,99236.09
2023-07-29T16:04:11.832Z,99230.94
2023-07-29T16:06:39.697Z,99229.69
2023-07-29T16:09:07.742Z,99227.38
2023-07-29T16:11:35.282Z,99213.03
2023-07-29T16:14:03.547Z,99223.06
2023-07-29T16:16:30.836Z,99218.34
2023-07-29T16:18:58.423Z,99215.69
2023-07-29T16:21:25.786Z,99197.19
2023-07-29T16:23:54.112Z,99212.91
2023-07-29T16:26:21.652Z,99211.28
2023-07-29T16:28:49.157Z,99212.47
2023-07-29T16:31:16.782Z,99217.50
2023-07-29T16:33:44.415Z,99219.59
2023-07-29T16:36:11.740Z,99214.63
2023-07-29T16:38:39.313Z,99221.00
2023-07-29T16:41:11.269Z,99215.81
2023-07-29T16:43:41.862Z,99213.59
2023-07-29T16:46:09.291Z,99215.28
2023-07-29T16:48:36.896Z,99220.47
2023-07-29T16:51:04.774Z,99210.75
2023-07-29T16:53:32.859Z,99225.69
2023-07-29T16:56:01.333Z,99213.44
2023-07-29T16:58:28.851Z,99222.38
2023-07-29T17:00:56.107Z,99219.44
2023-07-29T17:03:23.810Z,99213.69
2023-07-29T17:05:54.276Z,99218.22
2023-07-29T17:08:21.886Z,99199.03
2023-07-29T17:10:49.224Z,99205.88
2023-07-29T17:13:16.896Z,99188.69
2023-07-29T17:15:44.274Z,99198.34
2023-07-29T17:18:11.802Z,99202.53
2023-07-29T17:20:39.047Z,99205.84
2023-07-29T17:23:06.777Z,99207.25
2023-07-29T17:25:34.016Z,99202.03
2023-07-29T17:28:03.105Z,99192.78
2023-07-29T17:30:30.444Z,99196.19
2023-07-29T17:33:00.378Z,99192.78
2023-07-29T17:35:29.487Z,99207.69
2023-07-29T17:37:57.607Z,99207.38
2023-07-29T17:40:24.902Z,99194.94
2023-07-29T17:42:52.417Z,99195.25
2023-07-29T17:45:20.276Z,99178.50
2023-07-29T17:47:47.973Z,99180.97
2023-07-29T17:50:15.422Z,99181.16
2023-07-29T17:52:43.056Z,99187.09
2023-07-29T17:55:10.325Z,99184.00
2023-07-29T17:57:37.841Z,99181.13
2023-07-29T18:00:07.304Z,99170.84
2023-07-29T18:02:34.687Z,99186.16
2023-07-29T18:05:03.026Z,99180.00
2023-07-29T18:07:30.377Z,99187.41
2023-07-29T18:09:57.938Z,99196.41
2023-07-29T18:12:25.216Z,99216.94
2023-07-29T18:14:53.620Z,99221.59
2023-07-29T18:17:20.906Z,99225.94
2023-07-29T18:19:48.605Z,99231.81
2023-07-29T18:22:15.854Z,99232.31
2023-07-29T18:24:43.478Z,99230.56
2023-07-29T18:27:12.102Z,99239.66
2023-07-29T18:29:39.824Z,99244.22
2023-07-29T18:32:07.605Z,99245.63
2023-07-29T18:34:35.218Z,99244.31
2023-07-29T18:37:02.551Z,99248.75
2023-07-29T18:39:30.577Z,99253.16
2023-07-29T18:41:57.935Z,99251.41
2023-07-29T18:44:25.513Z,99249.84
2023-07-29T18:46:54.806Z,99266.63
2023-07-29T18:49:24.690Z,99267.66
2023-07-29T18:51:52.049Z,99263.28
2023-07-29T18:54:19.649Z,99270.31
2023-07-29T18:56:46.913Z,99263.28
2023-07-29T18:59:19.930Z,99272.66
2023-07-29T19:01:48.113Z,99269.97
2023-07-29T19:04:16.022Z,99263.44
2023-07-29T19:06:43.529Z,99257.38
2023-07-29T19:09:11.404Z,99272.47
2023-07-29T19:11:38.808Z,99248.22
2023-07-29T19:14:06.386Z,99256.19
2023-07-29T19:16:33.930Z,99260.22
2023-07-29T19:19:01.656Z,99255.84
2023-07-29T19:21:28.863Z,99253.22
2023-07-29T19:23:56.614Z,99250.72
2023-07-29T19:26:23.961Z,99251.66
2023-07-29T19:28:52.112Z,99266.75
2023-07-29T19:31:19.587Z,99260.34
2023-07-29T19:33:47.383Z,99249.72
2023-07-29T19:36:14.722Z,99242.38
2023-07-29T19:38:42.302Z,99227.47
2023-07-29T19:41:09.713Z,99229.28
2023-07-29T19:43:37.385Z,99219.09
2023-07-29T19:48:35.802Z,99202.81
2023-07-29T19:51:03.275Z,99200.66
2023-07-29T19:53:31.576Z,99191.56
2023-07-29T19:55:59.170Z,99189.91
2023-07-29T19:58:26.764Z,99198.47
2023-07-29T20:00:54.017Z,99192.47
2023-07-29T20:03:21.634Z,99193.53
2023-07-29T20:05:49.059Z,99185.81
2023-07-29T20:08:16.666Z,99190.81
2023-07-29T20:10:45.066Z,99186.31
2023-07-29T20:13:12.688Z,99190.94
2023-07-29T20:15:40.108Z,99198.31
2023-07-29T20:18:07.825Z,99195.44
2023-07-29T20:20:35.169Z,99180.84
2023-07-29T20:23:02.748Z,99192.47
2023-07-29T20:25:30.163Z,99194.25
2023-07-29T20:27:57.922Z,99183.22
2023-07-29T20:30:25.341Z,99187.59
2023-07-29T20:32:52.942Z,99179.41
2023-07-29T20:35:21.534Z,99176.78
2023-07-29T20:37:51.154Z,99185.44
2023-07-29T20:40:18.583Z,99173.59
2023-07-29T20:42:46.573Z,99181.53
2023-07-29T20:45:13.848Z,99180.47
2023-07-29T20:47:41.513Z,99175.63
2023-07-29T20:50:09.407Z,99181.19
2023-07-29T20:52:37.070Z,99180.91
2023-07-29T20:55:04.596Z,99174.03
2023-07-29T20:57:32.079Z,99181.72
2023-07-29T20:59:59.346Z,99185.53
2023-07-29T21:02:27.020Z,99183.28
2023-07-29T21:04:54.405Z,99186.81
2023-07-29T21:07:22.039Z,99187.41
2023-07-29T21:09:49.525Z,99187.41
2023-07-29T21:12:18.697Z,99191.19
2023-07-29T21:14:46.412Z,99185.72
2023-07-29T21:17:14.008Z,99195.44
2023-07-29T21:19:41.486Z,99191.75
2023-07-29T21:22:09.145Z,99207.91
2023-07-29T21:24:37.523Z,99208.94
2023-07-29T21:27:05.704Z,99207.28
2023-07-29T21:29:32.967Z,99203.09
2023-07-29T21:32:00.471Z,99194.41
2023-07-29T21:34:27.756Z,99207.22
2023-07-29T21:36:55.341Z,99211.31
2023-07-29T21:39:22.673Z,99205.28
2023-07-29T21:41:50.286Z,99198.22
2023-07-29T21:44:17.633Z,99203.44
2023-07-29T21:46:45.213Z,99212.44
2023-07-29T21:49:12.552Z,99210.19
2023-07-29T21:51:40.656Z,99216.09
2023-07-29T21:54:08.169Z,99224.50
2023-07-29T21:56:35.696Z,99225.50
2023-07-29T21:59:03.026Z,99223.22
2023-07-29T22:01:30.610Z,99227.19
2023-07-29T22:03:57.828Z,99228.22
2023-07-29T22:06:26.913Z,99238.66
2023-07-29T22:08:54.250Z,99244.50
2023-07-29T22:11:21.870Z,99240.00
2023-07-29T22:13:49.189Z,99231.09
2023-07-29T22:16:16.857Z,99240.16
2023-07-29T22:18:44.222Z,99241.09
2023-07-29T22:21:11.803Z,99232.56
2023-07-29T22:23:49.893Z,99226.28
2023-07-29T22:26:22.044Z,99224.34
2023-07-29T22:28:49.411Z,99219.91
2023-07-29T22:31:17.147Z,99219.00
2023-07-29T22:33:44.544Z,99219.00
2023-07-29T22:36:12.114Z,99220.03
2023-07-29T22:38:39.434Z,99226.25
2023-07-29T22:41:07.325Z,99222.94
2023-07-29T22:43:34.707Z,99220.78
2023-07-29T22:46:02.867Z,99226.34
2023-07-29T22:48:30.465Z,99217.53
2023-07-29T22:50:58.766Z,99227.06
2023-07-29T22:53:26.161Z,99223.72
2023-07-29T22:55:53.929Z,99232.06
2023-07-29T22:58:21.664Z,99219.53
2023-07-29T23:00:54.586Z,99219.75
2023-07-29T23:03:23.046Z,99237.69
2023-07-29T23:05:50.780Z,99242.44
2023-07-29T23:08:18.403Z,99241.16
2023-07-29T23:10:45.997Z,99248.13
2023-07-29T23:13:13.299Z,99237.50
2023-07-29T23:15:45.476Z,99233.53
2023-07-29T23:18:13.354Z,99237.94
2023-07-29T23:20:40.994Z,99229.81
2023-07-29T23:23:08.447Z,99228.00
2023-07-29T23:25:36.194Z,99228.03
2023-07-29T23:28:03.566Z,99229.84
2023-07-29T23:30:31.066Z,99230.25
2023-07-29T23:32:58.316Z,99234.78
2023-07-29T23:35:26.096Z,99227.53
2023-07-29T23:37:53.389Z,99224.94
2023-07-29T23:40:21.074Z,99239.38
2023-07-29T23:42:48.378Z,99238.06
2023-07-29T23:45:16.330Z,99246.16
2023-07-29T23:47:44.039Z,99229.34
2023-07-29T23:50:11.766Z,99229.28
2023-07-29T23:52:39.081Z,99223.69
2023-07-29T23:55:07.154Z,99222.03
2023-07-29T23:57:34.497Z,99235.44
